Time;durP1;ratioP1;P1;durP2;ratioP2;P2;SDS_P1;SDS_P2;PMS_P1;PMS_P2;Temp;Humidity;BMP_temperature;BMP_pressure;BME280_temperature;BME280_humidity;BME280_pressure;Samples;Min_cycle;Max_cycle;Signal;HPM_P1;HPM_P2
2023/04/06 00:00:22;;;;;;;50.33;24.45;;;;;;;;;;4919769;28;20519;-73
2023/04/06 00:02:48;;;;;;;41.55;23.20;;;;;;;;;;4921012;28;20055;-75
2023/04/06 00:05:15;;;;;;;42.80;22.58;;;;;;;;;;4919325;28;20143;-74
2023/04/06 00:07:40;;;;;;;43.20;23.17;;;;;;;;;;4919538;28;20078;-75
2023/04/06 00:10:06;;;;;;;39.95;22.30;;;;;;;;;;4914783;28;20733;-75
2023/04/06 00:12:34;;;;;;;43.58;22.00;;;;;;;;;;4913041;28;20035;-74
2023/04/06 00:15:01;;;;;;;40.75;22.42;;;;;;;;;;4917392;28;20046;-74
2023/04/06 00:17:26;;;;;;;42.47;23.27;;;;;;;;;;4878942;28;1154624;-73
2023/04/06 00:19:56;;;;;;;44.72;23.23;;;;;;;;;;4915599;28;20036;-74
2023/04/06 00:22:24;;;;;;;47.88;25.65;;;;;;;;;;4919203;28;20055;-72
2023/04/06 00:24:50;;;;;;;48.97;24.52;;;;;;;;;;4932774;28;20753;-73
2023/04/06 00:27:15;;;;;;;45.00;23.73;;;;;;;;;;4920952;28;20054;-75
2023/04/06 00:29:40;;;;;;;35.70;18.80;;;;;;;;;;4919924;28;20192;-75
2023/04/06 00:32:06;;;;;;;34.50;18.35;;;;;;;;;;4919514;28;20039;-74
2023/04/06 00:34:33;;;;;;;29.08;17.13;;;;;;;;;;4916218;28;21847;-75
2023/04/06 00:37:03;;;;;;;34.00;18.98;;;;;;;;;;4921027;28;20124;-74
2023/04/06 00:39:28;;;;;;;36.17;19.67;;;;;;;;;;4919666;28;20085;-73
2023/04/06 00:41:54;;;;;;;37.60;19.77;;;;;;;;;;4920325;28;20051;-75
2023/04/06 00:44:24;;;;;;;34.25;20.15;;;;;;;;;;4918908;28;20401;-74
2023/04/06 00:46:50;;;;;;;33.83;20.42;;;;;;;;;;4918124;28;20054;-71
2023/04/06 00:49:15;;;;;;;33.25;18.42;;;;;;;;;;4920413;28;20137;-76
2023/04/06 00:51:40;;;;;;;31.20;18.20;;;;;;;;;;4920628;28;20039;-75
2023/04/06 00:54:06;;;;;;;31.17;18.52;;;;;;;;;;4920994;28;20043;-74
2023/04/06 00:56:31;;;;;;;35.88;19.30;;;;;;;;;;4918568;28;20055;-75
2023/04/06 00:58:57;;;;;;;33.08;17.50;;;;;;;;;;4919806;28;20050;-75
2023/04/06 01:01:22;;;;;;;31.20;17.20;;;;;;;;;;4920415;28;20187;-75
2023/04/06 01:03:49;;;;;;;36.42;19.88;;;;;;;;;;4920167;28;20515;-75
2023/04/06 01:06:17;;;;;;;35.88;19.50;;;;;;;;;;4934210;28;20048;-73
2023/04/06 01:08:42;;;;;;;36.25;19.70;;;;;;;;;;4915824;28;20039;-75
2023/04/06 01:11:07;;;;;;;32.35;18.63;;;;;;;;;;4917207;28;20046;-73
2023/04/06 01:13:33;;;;;;;28.60;16.90;;;;;;;;;;4920357;28;20046;-74
2023/04/06 01:15:58;;;;;;;35.15;18.38;;;;;;;;;;4897643;28;20043;-73
2023/04/06 01:18:27;;;;;;;30.20;17.98;;;;;;;;;;4923542;28;20090;-74
2023/04/06 01:20:52;;;;;;;32.60;17.33;;;;;;;;;;4918532;28;20054;-73
2023/04/06 01:23:17;;;;;;;26.48;16.50;;;;;;;;;;4917725;28;22029;-74
2023/04/06 01:25:42;;;;;;;29.83;15.38;;;;;;;;;;4920006;28;20135;-73
2023/04/06 01:28:08;;;;;;;30.35;15.57;;;;;;;;;;4911504;28;20187;-73
2023/04/06 01:30:33;;;;;;;25.10;15.05;;;;;;;;;;4947994;28;20115;-72
2023/04/06 01:32:58;;;;;;;26.98;16.33;;;;;;;;;;4917187;28;20035;-73
2023/04/06 01:35:26;;;;;;;31.08;15.50;;;;;;;;;;4920017;28;20205;-73
2023/04/06 01:37:54;;;;;;;26.13;14.68;;;;;;;;;;4919171;28;20181;-72
2023/04/06 01:40:20;;;;;;;28.08;16.10;;;;;;;;;;4916588;28;20579;-74
2023/04/06 01:42:48;;;;;;;26.73;15.75;;;;;;;;;;4916722;28;20104;-73
2023/04/06 01:45:13;;;;;;;32.15;16.20;;;;;;;;;;4919811;28;20067;-72
2023/04/06 01:47:38;;;;;;;29.92;15.90;;;;;;;;;;4919572;28;20059;-74
2023/04/06 01:50:07;;;;;;;30.35;16.88;;;;;;;;;;4916441;28;20101;-74
2023/04/06 01:52:37;;;;;;;29.10;15.70;;;;;;;;;;4917311;28;20258;-74
2023/04/06 01:55:02;;;;;;;25.00;14.95;;;;;;;;;;4916883;28;20058;-73
2023/04/06 01:57:27;;;;;;;26.13;13.68;;;;;;;;;;4917589;28;20584;-74
2023/04/06 01:59:52;;;;;;;24.67;14.18;;;;;;;;;;4920294;28;20050;-76
2023/04/06 02:02:18;;;;;;;20.00;12.75;;;;;;;;;;4917271;28;20043;-76
2023/04/06 02:04:43;;;;;;;25.10;13.15;;;;;;;;;;4916617;28;20150;-74
2023/04/06 02:07:08;;;;;;;20.50;13.15;;;;;;;;;;4919790;28;20050;-74
2023/04/06 02:09:34;;;;;;;27.90;14.98;;;;;;;;;;4919648;28;20047;-72
2023/04/06 02:12:02;;;;;;;25.83;13.88;;;;;;;;;;4919877;28;20051;-75
2023/04/06 02:14:27;;;;;;;27.05;14.18;;;;;;;;;;4914562;28;20043;-74
2023/04/06 02:16:53;;;;;;;23.70;14.02;;;;;;;;;;4916369;28;20075;-74
2023/04/06 02:19:18;;;;;;;22.52;12.52;;;;;;;;;;4917517;28;20043;-75
2023/04/06 02:21:43;;;;;;;21.10;12.23;;;;;;;;;;4917488;28;20063;-75
2023/04/06 02:24:11;;;;;;;25.25;13.15;;;;;;;;;;4916231;28;20039;-74
2023/04/06 02:26:36;;;;;;;22.45;12.85;;;;;;;;;;4916848;28;20118;-75
2023/04/06 02:29:02;;;;;;;27.30;12.77;;;;;;;;;;4918371;28;20428;-75
2023/04/06 02:31:27;;;;;;;20.52;12.43;;;;;;;;;;4917424;28;20043;-72
2023/04/06 02:33:55;;;;;;;21.98;12.55;;;;;;;;;;4919048;28;20035;-74
2023/04/06 02:36:22;;;;;;;21.63;11.60;;;;;;;;;;4920188;28;20059;-74
2023/04/06 02:38:50;;;;;;;21.75;13.30;;;;;;;;;;4916959;28;20287;-74
2023/04/06 02:41:15;;;;;;;22.77;12.90;;;;;;;;;;4919780;28;20047;-74
2023/04/06 02:43:40;;;;;;;21.23;12.52;;;;;;;;;;4914846;28;20070;-74
2023/04/06 02:46:05;;;;;;;22.35;12.55;;;;;;;;;;4916351;28;22003;-72
2023/04/06 02:48:36;;;;;;;23.52;14.13;;;;;;;;;;4917949;28;20043;-73
2023/04/06 02:51:01;;;;;;;23.02;13.52;;;;;;;;;;4916878;28;20198;-74
2023/04/06 02:53:27;;;;;;;22.55;13.63;;;;;;;;;;4917507;28;20058;-74
2023/04/06 02:55:52;;;;;;;27.38;14.57;;;;;;;;;;4914002;28;20070;-74
2023/04/06 02:58:23;;;;;;;23.38;13.15;;;;;;;;;;4912854;28;20086;-73
2023/04/06 03:00:49;;;;;;;24.63;14.55;;;;;;;;;;4919989;28;20063;-73
2023/04/06 03:03:14;;;;;;;20.98;12.73;;;;;;;;;;4918719;28;20375;-74
2023/04/06 03:05:40;;;;;;;21.88;12.93;;;;;;;;;;4918702;28;20066;-75
2023/04/06 03:08:05;;;;;;;23.20;13.60;;;;;;;;;;4918228;28;20058;-74
2023/04/06 03:10:30;;;;;;;25.50;13.88;;;;;;;;;;4917532;28;20031;-73
2023/04/06 03:12:56;;;;;;;22.38;13.77;;;;;;;;;;4922812;28;20177;-73
2023/04/06 03:15:23;;;;;;;25.83;13.73;;;;;;;;;;4921070;28;20046;-73
2023/04/06 03:17:48;;;;;;;27.88;13.48;;;;;;;;;;4919255;28;20055;-74
2023/04/06 03:20:14;;;;;;;24.10;13.80;;;;;;;;;;4919036;28;20078;-72
2023/04/06 03:22:39;;;;;;;24.52;13.88;;;;;;;;;;4921111;28;20412;-73
2023/04/06 03:25:05;;;;;;;26.20;13.98;;;;;;;;;;4916977;28;20039;-72
2023/04/06 03:27:30;;;;;;;22.23;12.98;;;;;;;;;;4918238;28;20524;-74
2023/04/06 03:29:56;;;;;;;25.38;13.48;;;;;;;;;;4920728;28;20039;-72
2023/04/06 03:32:21;;;;;;;26.10;13.85;;;;;;;;;;4915501;28;21654;-73
2023/04/06 03:34:46;;;;;;;22.67;13.60;;;;;;;;;;4926961;28;20054;-73
2023/04/06 03:37:12;;;;;;;20.80;12.68;;;;;;;;;;4914272;28;20058;-74
2023/04/06 03:39:37;;;;;;;27.17;14.32;;;;;;;;;;4919225;28;20109;-74
2023/04/06 03:42:05;;;;;;;24.58;13.57;;;;;;;;;;4904592;28;20039;-74
2023/04/06 03:44:30;;;;;;;26.75;14.98;;;;;;;;;;4919493;28;20046;-74
2023/04/06 03:46:55;;;;;;;24.58;14.07;;;;;;;;;;4934399;28;20146;-74
2023/04/06 03:49:20;;;;;;;26.38;14.38;;;;;;;;;;4918743;28;20059;-74
2023/04/06 03:51:48;;;;;;;31.35;17.23;;;;;;;;;;4923984;28;20124;-75
2023/04/06 03:54:15;;;;;;;31.98;15.90;;;;;;;;;;4916321;28;20102;-74
2023/04/06 03:56:43;;;;;;;28.08;15.63;;;;;;;;;;4916246;28;20259;-74
2023/04/06 03:59:08;;;;;;;28.13;16.13;;;;;;;;;;4920397;28;20043;-74
2023/04/06 04:01:33;;;;;;;25.58;15.07;;;;;;;;;;4922616;28;20066;-74
2023/04/06 04:03:59;;;;;;;25.95;14.32;;;;;;;;;;4917116;28;20039;-74
2023/04/06 04:06:25;;;;;;;25.80;14.27;;;;;;;;;;4920558;28;20049;-74
2023/04/06 04:08:51;;;;;;;26.35;15.05;;;;;;;;;;4919495;28;20066;-74
2023/04/06 04:11:16;;;;;;;25.33;14.57;;;;;;;;;;4921280;28;20040;-74
2023/04/06 04:13:48;;;;;;;21.85;13.23;;;;;;;;;;4916754;28;20451;-76
2023/04/06 04:16:13;;;;;;;25.42;13.63;;;;;;;;;;4918352;28;20048;-75
2023/04/06 04:18:39;;;;;;;25.38;14.25;;;;;;;;;;4919628;28;20327;-74
2023/04/06 04:21:04;;;;;;;26.48;14.50;;;;;;;;;;4916795;28;20449;-75
2023/04/06 04:23:30;;;;;;;25.42;13.98;;;;;;;;;;4918072;28;20059;-75
2023/04/06 04:25:55;;;;;;;25.25;14.82;;;;;;;;;;4922312;28;20058;-74
2023/04/06 04:28:20;;;;;;;24.70;14.57;;;;;;;;;;4923079;28;20028;-75
2023/04/06 04:30:46;;;;;;;26.38;14.05;;;;;;;;;;4917625;28;20039;-74
2023/04/06 04:33:11;;;;;;;23.42;14.23;;;;;;;;;;4921356;28;20054;-75
2023/04/06 04:35:36;;;;;;;21.92;13.65;;;;;;;;;;4923419;28;20569;-74
2023/04/06 04:38:02;;;;;;;24.60;14.50;;;;;;;;;;4917064;28;20516;-74
2023/04/06 04:40:29;;;;;;;27.25;14.77;;;;;;;;;;4923108;28;20078;-74
2023/04/06 04:42:55;;;;;;;26.90;15.35;;;;;;;;;;4919511;28;20054;-75
2023/04/06 04:45:20;;;;;;;23.20;13.63;;;;;;;;;;4920905;28;20046;-74
2023/04/06 04:47:45;;;;;;;34.47;14.68;;;;;;;;;;4917449;28;20074;-76
2023/04/06 04:50:10;;;;;;;24.08;14.43;;;;;;;;;;4904593;28;20280;-75
2023/04/06 04:52:37;;;;;;;31.05;15.10;;;;;;;;;;4902951;28;20296;-75
2023/04/06 04:55:02;;;;;;;32.72;15.82;;;;;;;;;;4920133;28;20120;-74
2023/04/06 04:57:27;;;;;;;28.08;14.82;;;;;;;;;;4933114;28;20051;-74
2023/04/06 04:59:53;;;;;;;32.55;16.10;;;;;;;;;;4922692;28;20514;-72
2023/04/06 05:02:20;;;;;;;26.25;14.57;;;;;;;;;;4919287;28;20043;-75
2023/04/06 05:04:46;;;;;;;28.05;14.85;;;;;;;;;;4918808;28;20325;-74
2023/04/06 05:07:15;;;;;;;34.85;15.65;;;;;;;;;;4914828;28;20260;-74
2023/04/06 05:09:40;;;;;;;25.73;14.82;;;;;;;;;;4919185;28;20109;-74
2023/04/06 05:12:10;;;;;;;26.05;15.45;;;;;;;;;;4915968;28;20426;-73
2023/04/06 05:14:40;;;;;;;27.27;15.65;;;;;;;;;;4919212;28;20601;-74
2023/04/06 05:17:05;;;;;;;29.23;15.40;;;;;;;;;;4919619;28;22040;-73
2023/04/06 05:19:33;;;;;;;28.95;15.57;;;;;;;;;;4902392;28;20629;-75
2023/04/06 05:21:59;;;;;;;29.35;15.50;;;;;;;;;;4918669;28;20055;-72
2023/04/06 05:24:26;;;;;;;27.50;16.23;;;;;;;;;;4920067;28;20116;-72
2023/04/06 05:26:54;;;;;;;29.52;16.70;;;;;;;;;;4917528;28;20043;-69
2023/04/06 05:29:20;;;;;;;32.25;17.38;;;;;;;;;;4920250;28;20039;-72
2023/04/06 05:31:45;;;;;;;34.15;17.55;;;;;;;;;;4918717;28;20057;-72
2023/04/06 05:34:12;;;;;;;37.85;18.17;;;;;;;;;;4920647;28;20031;-72
2023/04/06 05:36:37;;;;;;;38.53;18.38;;;;;;;;;;4913620;28;20054;-72
2023/04/06 05:39:02;;;;;;;41.58;20.48;;;;;;;;;;4919648;28;20631;-71
2023/04/06 05:41:28;;;;;;;36.33;19.52;;;;;;;;;;4913224;28;20114;-71
2023/04/06 05:43:53;;;;;;;42.75;20.63;;;;;;;;;;4919158;28;20092;-72
2023/04/06 05:46:21;;;;;;;37.58;20.40;;;;;;;;;;4916857;28;20097;-74
2023/04/06 05:48:46;;;;;;;39.28;20.38;;;;;;;;;;4917406;28;20285;-73
2023/04/06 05:51:11;;;;;;;42.05;22.45;;;;;;;;;;4917896;28;20050;-73
2023/04/06 05:53:37;;;;;;;44.58;21.27;;;;;;;;;;4916624;28;20416;-73
2023/04/06 05:56:04;;;;;;;40.92;22.00;;;;;;;;;;4916054;28;20085;-73
2023/04/06 05:58:30;;;;;;;36.42;21.23;;;;;;;;;;4917192;28;20040;-74
2023/04/06 06:01:02;;;;;;;45.38;23.75;;;;;;;;;;4918037;28;21254;-73
2023/04/06 06:03:28;;;;;;;41.92;23.55;;;;;;;;;;4918771;28;20616;-75
2023/04/06 06:05:59;;;;;;;40.33;23.73;;;;;;;;;;4918422;28;20082;-73
2023/04/06 06:08:24;;;;;;;48.80;25.10;;;;;;;;;;4917171;28;20045;-73
2023/04/06 06:10:50;;;;;;;49.70;24.55;;;;;;;;;;4922094;28;20035;-73
2023/04/06 06:13:15;;;;;;;57.03;26.17;;;;;;;;;;4903131;28;20036;-74
2023/04/06 06:15:41;;;;;;;56.78;27.42;;;;;;;;;;4917260;28;20031;-73
2023/04/06 06:18:06;;;;;;;48.60;24.75;;;;;;;;;;4916578;28;20554;-73
2023/04/06 06:20:31;;;;;;;37.90;22.90;;;;;;;;;;4919095;28;20039;-73
2023/04/06 06:22:57;;;;;;;39.58;22.02;;;;;;;;;;4903454;28;20062;-71
2023/04/06 06:25:22;;;;;;;47.15;24.20;;;;;;;;;;4922371;28;20169;-73
2023/04/06 06:27:47;;;;;;;45.83;25.33;;;;;;;;;;4923133;28;20056;-74
2023/04/06 06:30:13;;;;;;;43.20;23.98;;;;;;;;;;4935967;28;21075;-74
2023/04/06 06:32:38;;;;;;;44.72;23.58;;;;;;;;;;4954405;28;20070;-73
2023/04/06 06:35:04;;;;;;;41.40;22.95;;;;;;;;;;4923476;28;20066;-72
2023/04/06 06:37:29;;;;;;;41.85;24.33;;;;;;;;;;4926508;28;20133;-73
2023/04/06 06:39:54;;;;;;;38.80;22.63;;;;;;;;;;4927664;28;20040;-74
2023/04/06 06:42:20;;;;;;;40.33;24.35;;;;;;;;;;4925256;28;20074;-73
2023/04/06 06:44:45;;;;;;;44.95;24.38;;;;;;;;;;4924115;28;20071;-74
2023/04/06 06:47:10;;;;;;;48.17;25.65;;;;;;;;;;4922700;28;20059;-73
2023/04/06 06:49:36;;;;;;;51.08;25.85;;;;;;;;;;4925025;28;20142;-74
2023/04/06 06:52:01;;;;;;;43.42;24.25;;;;;;;;;;4924606;28;20625;-73
2023/04/06 06:54:26;;;;;;;47.45;25.48;;;;;;;;;;4924190;28;20569;-74
2023/04/06 06:56:54;;;;;;;46.50;26.02;;;;;;;;;;4920980;28;20050;-72
2023/04/06 06:59:20;;;;;;;46.45;26.23;;;;;;;;;;4924767;28;20039;-73
2023/04/06 07:01:48;;;;;;;44.03;25.20;;;;;;;;;;4925874;28;20035;-73
2023/04/06 07:04:13;;;;;;;47.90;24.73;;;;;;;;;;4929425;28;20063;-73
2023/04/06 07:06:38;;;;;;;43.10;25.08;;;;;;;;;;4926434;28;20669;-73
2023/04/06 07:09:04;;;;;;;49.67;28.02;;;;;;;;;;4929889;28;20027;-73
2023/04/06 07:11:32;;;;;;;44.92;26.58;;;;;;;;;;4928601;28;20141;-72
2023/04/06 07:13:57;;;;;;;40.72;26.15;;;;;;;;;;4917757;28;20073;-73
2023/04/06 07:16:25;;;;;;;45.13;27.20;;;;;;;;;;4919686;28;20483;-72
2023/04/06 07:18:50;;;;;;;44.22;27.50;;;;;;;;;;4920160;28;20051;-72
2023/04/06 07:21:18;;;;;;;42.45;26.15;;;;;;;;;;4926107;28;20140;-71
2023/04/06 07:23:43;;;;;;;51.03;27.42;;;;;;;;;;4922261;28;20039;-73
2023/04/06 07:26:08;;;;;;;45.17;27.98;;;;;;;;;;4921663;28;20954;-71
2023/04/06 07:28:34;;;;;;;45.03;27.27;;;;;;;;;;4919739;28;20711;-73
2023/04/06 07:30:59;;;;;;;45.83;28.20;;;;;;;;;;4914818;28;20441;-72
2023/04/06 07:33:29;;;;;;;51.08;30.00;;;;;;;;;;4922227;28;20166;-73
2023/04/06 07:35:55;;;;;;;48.10;28.42;;;;;;;;;;4917396;28;20027;-72
2023/04/06 07:38:22;;;;;;;51.05;29.17;;;;;;;;;;4920085;28;20036;-74
2023/04/06 07:40:48;;;;;;;51.15;29.98;;;;;;;;;;4921477;28;20031;-72
2023/04/06 07:43:13;;;;;;;53.33;29.98;;;;;;;;;;4918745;28;20035;-74
2023/04/06 07:45:38;;;;;;;52.85;30.90;;;;;;;;;;4920306;28;20031;-73
2023/04/06 07:48:04;;;;;;;50.83;30.08;;;;;;;;;;4917180;28;20027;-73
2023/04/06 07:50:29;;;;;;;53.60;31.55;;;;;;;;;;4920391;28;20039;-75
2023/04/06 07:52:55;;;;;;;51.35;29.52;;;;;;;;;;4913635;28;20035;-73
2023/04/06 07:55:20;;;;;;;53.08;30.85;;;;;;;;;;4918078;28;20850;-71
2023/04/06 07:57:45;;;;;;;50.00;29.02;;;;;;;;;;4921012;28;20486;-72
2023/04/06 08:00:11;;;;;;;48.40;29.52;;;;;;;;;;4918970;28;20089;-72
2023/04/06 08:02:39;;;;;;;49.55;30.08;;;;;;;;;;4916065;28;20048;-72
2023/04/06 08:05:05;;;;;;;46.13;28.65;;;;;;;;;;4920228;28;20530;-72
2023/04/06 08:07:31;;;;;;;41.47;26.92;;;;;;;;;;4919130;28;20109;-71
2023/04/06 08:09:58;;;;;;;47.78;27.45;;;;;;;;;;4912804;28;20036;-72
2023/04/06 08:12:24;;;;;;;47.10;28.42;;;;;;;;;;4914844;28;20492;-73
2023/04/06 08:14:49;;;;;;;48.95;28.70;;;;;;;;;;4915983;28;20123;-70
2023/04/06 08:17:15;;;;;;;46.30;27.83;;;;;;;;;;4915624;28;20520;-72
2023/04/06 08:19:42;;;;;;;40.15;25.65;;;;;;;;;;4912614;28;20043;-73
2023/04/06 08:22:07;;;;;;;37.95;25.55;;;;;;;;;;4916845;28;20745;-71
2023/04/06 08:24:35;;;;;;;41.65;25.33;;;;;;;;;;4920130;28;20514;-71
2023/04/06 08:27:00;;;;;;;47.75;27.58;;;;;;;;;;4919698;28;20043;-72
2023/04/06 08:29:25;;;;;;;47.60;26.08;;;;;;;;;;4916547;28;20101;-72
2023/04/06 08:31:51;;;;;;;43.30;24.42;;;;;;;;;;4918215;28;20043;-72
2023/04/06 08:34:16;;;;;;;48.95;26.17;;;;;;;;;;4916161;28;20181;-74
2023/04/06 08:36:41;;;;;;;43.97;23.95;;;;;;;;;;4917913;28;20182;-71
2023/04/06 08:39:06;;;;;;;45.75;25.20;;;;;;;;;;4924534;28;20048;-71
2023/04/06 08:41:32;;;;;;;39.97;22.83;;;;;;;;;;4905104;28;20037;-73
2023/04/06 08:43:57;;;;;;;43.50;22.83;;;;;;;;;;4916975;28;20071;-72
2023/04/06 08:46:28;;;;;;;35.72;22.02;;;;;;;;;;4919282;28;20043;-73
2023/04/06 08:48:54;;;;;;;42.33;23.80;;;;;;;;;;4920522;28;20050;-73
2023/04/06 08:51:22;;;;;;;45.30;23.48;;;;;;;;;;4919837;28;20047;-71
2023/04/06 08:53:48;;;;;;;45.20;23.88;;;;;;;;;;4920265;28;20035;-67
2023/04/06 08:56:14;;;;;;;39.17;23.33;;;;;;;;;;4918730;28;20134;-73
2023/04/06 08:58:40;;;;;;;46.03;25.10;;;;;;;;;;4932700;28;20035;-74
2023/04/06 09:01:09;;;;;;;43.30;25.23;;;;;;;;;;4920415;28;20086;-73
2023/04/06 09:03:38;;;;;;;47.13;25.83;;;;;;;;;;4916339;28;20391;-73
2023/04/06 09:06:04;;;;;;;35.22;22.55;;;;;;;;;;4930483;28;20035;-73
2023/04/06 09:08:29;;;;;;;40.17;23.58;;;;;;;;;;4919155;28;20074;-75
2023/04/06 09:10:55;;;;;;;38.33;22.98;;;;;;;;;;4921027;28;20027;-74
2023/04/06 09:13:20;;;;;;;39.88;23.58;;;;;;;;;;4916203;28;20067;-75
2023/04/06 09:15:45;;;;;;;32.42;22.15;;;;;;;;;;4918258;28;20484;-74
2023/04/06 09:18:11;;;;;;;36.22;22.17;;;;;;;;;;4918423;28;20488;-75
2023/04/06 09:20:41;;;;;;;34.30;22.35;;;;;;;;;;4898864;28;20062;-73
2023/04/06 09:23:17;;;;;;;37.10;23.10;;;;;;;;;;4920707;28;22570;-73
2023/04/06 09:25:44;;;;;;;39.67;24.35;;;;;;;;;;4919258;28;20035;-74
2023/04/06 09:28:11;;;;;;;34.97;22.85;;;;;;;;;;4918646;28;20119;-73
2023/04/06 09:30:47;;;;;;;33.90;22.60;;;;;;;;;;4920920;28;20713;-74
2023/04/06 09:33:12;;;;;;;38.58;24.48;;;;;;;;;;4917135;28;20035;-73
2023/04/06 09:35:40;;;;;;;37.10;22.85;;;;;;;;;;4921198;28;20444;-75
2023/04/06 09:38:10;;;;;;;41.97;24.30;;;;;;;;;;4916982;28;20056;-73
2023/04/06 09:40:47;;;;;;;34.40;22.02;;;;;;;;;;4940149;28;20517;-75
2023/04/06 09:43:12;;;;;;;40.00;23.30;;;;;;;;;;4913407;28;20035;-74
2023/04/06 09:45:37;;;;;;;35.72;23.77;;;;;;;;;;4915220;28;20043;-73
2023/04/06 09:48:03;;;;;;;41.35;23.83;;;;;;;;;;4918106;28;20046;-74
2023/04/06 09:50:32;;;;;;;34.65;22.20;;;;;;;;;;4917486;28;20067;-73
2023/04/06 09:52:58;;;;;;;40.17;22.17;;;;;;;;;;4911976;28;20042;-74
2023/04/06 09:55:27;;;;;;;30.83;21.60;;;;;;;;;;4917061;28;20035;-74
2023/04/06 09:57:57;;;;;;;36.75;22.90;;;;;;;;;;4914038;28;20051;-72
2023/04/06 10:00:26;;;;;;;30.55;18.85;;;;;;;;;;4920049;28;20046;-72
2023/04/06 10:03:07;;;;;;;28.38;18.80;;;;;;;;;;4934353;28;20042;-73
2023/04/06 10:05:54;;;;;;;30.42;18.40;;;;;;;;;;4913230;28;20039;-73
2023/04/06 10:08:22;;;;;;;28.23;17.50;;;;;;;;;;4916840;28;21085;-74
2023/04/06 10:10:47;;;;;;;28.20;17.90;;;;;;;;;;4922687;28;20046;-72
2023/04/06 10:13:13;;;;;;;31.73;16.95;;;;;;;;;;4938275;28;20941;-72
2023/04/06 10:15:40;;;;;;;26.42;15.48;;;;;;;;;;4917244;28;20578;-72
2023/04/06 10:18:08;;;;;;;19.10;13.63;;;;;;;;;;4921966;28;20074;-72
2023/04/06 10:20:51;;;;;;;20.42;13.18;;;;;;;;;;4902538;28;20042;-73
2023/04/06 10:23:26;;;;;;;27.70;16.30;;;;;;;;;;4951797;28;20044;-73
2023/04/06 10:25:52;;;;;;;27.48;16.30;;;;;;;;;;4916799;28;20129;-73
2023/04/06 10:28:19;;;;;;;26.15;14.05;;;;;;;;;;4921935;28;22078;-72
2023/04/06 10:30:45;;;;;;;23.05;13.30;;;;;;;;;;4923477;28;20039;-73
2023/04/06 10:33:14;;;;;;;21.05;12.48;;;;;;;;;;4931245;28;20820;-74
2023/04/06 10:35:39;;;;;;;23.05;13.25;;;;;;;;;;4920659;28;20044;-67
2023/04/06 10:38:05;;;;;;;21.73;12.73;;;;;;;;;;4917879;28;20051;-68
2023/04/06 10:40:33;;;;;;;20.73;12.73;;;;;;;;;;4922627;28;20500;-67
2023/04/06 10:43:09;;;;;;;19.55;11.57;;;;;;;;;;4917125;28;20047;-67
2023/04/06 10:45:37;;;;;;;19.83;11.18;;;;;;;;;;4916475;28;20057;-67
2023/04/06 10:48:16;;;;;;;17.10;11.10;;;;;;;;;;4914497;28;21548;-68
2023/04/06 10:50:47;;;;;;;22.92;11.75;;;;;;;;;;4930454;28;20055;-66
2023/04/06 10:53:20;;;;;;;18.00;11.05;;;;;;;;;;4912373;28;20423;-67
2023/04/06 10:55:46;;;;;;;20.85;12.02;;;;;;;;;;4918710;28;20610;-67
2023/04/06 10:58:11;;;;;;;22.48;11.68;;;;;;;;;;4942769;28;20055;-67
2023/04/06 11:00:43;;;;;;;16.75;10.13;;;;;;;;;;4915500;28;20053;-68
2023/04/06 11:03:08;;;;;;;17.30;11.13;;;;;;;;;;5000736;28;20044;-70
2023/04/06 11:05:35;;;;;;;19.20;11.93;;;;;;;;;;4922001;28;20318;-68
2023/04/06 11:08:03;;;;;;;18.95;11.77;;;;;;;;;;4921102;28;20177;-67
2023/04/06 11:10:29;;;;;;;18.55;11.45;;;;;;;;;;4919765;28;20043;-67
2023/04/06 11:12:55;;;;;;;16.60;11.00;;;;;;;;;;4918570;28;20043;-67
2023/04/06 11:15:23;;;;;;;19.75;12.13;;;;;;;;;;4918699;28;20036;-66
2023/04/06 11:17:49;;;;;;;19.77;12.88;;;;;;;;;;4916980;28;20134;-65
2023/04/06 11:20:14;;;;;;;25.65;13.02;;;;;;;;;;4917241;28;20039;-66
2023/04/06 11:22:52;;;;;;;23.05;13.30;;;;;;;;;;4914481;28;20047;-67
2023/04/06 11:25:17;;;;;;;19.25;11.82;;;;;;;;;;4923190;28;20126;-69
2023/04/06 11:27:43;;;;;;;18.00;12.02;;;;;;;;;;4911850;28;20051;-66
2023/04/06 11:30:09;;;;;;;17.73;13.15;;;;;;;;;;4917893;28;20384;-68
2023/04/06 11:32:42;;;;;;;18.17;13.20;;;;;;;;;;4917771;28;20064;-67
2023/04/06 11:35:10;;;;;;;17.70;13.30;;;;;;;;;;4917753;28;20043;-67
2023/04/06 11:37:35;;;;;;;22.00;13.98;;;;;;;;;;4918499;28;20564;-66
2023/04/06 11:40:01;;;;;;;21.98;14.70;;;;;;;;;;4913919;28;20064;-67
2023/04/06 11:42:27;;;;;;;20.00;14.80;;;;;;;;;;4919649;28;20122;-66
2023/04/06 11:44:58;;;;;;;18.23;13.82;;;;;;;;;;4917534;28;20031;-73
2023/04/06 11:47:27;;;;;;;21.95;15.90;;;;;;;;;;4918422;28;20046;-70
2023/04/06 11:49:53;;;;;;;26.13;17.73;;;;;;;;;;4903483;28;20035;-68
2023/04/06 11:52:25;;;;;;;27.90;16.63;;;;;;;;;;4919931;28;20036;-69
2023/04/06 11:54:51;;;;;;;26.17;16.73;;;;;;;;;;4951409;28;20071;-68
2023/04/06 11:57:20;;;;;;;15.70;13.38;;;;;;;;;;4917089;28;20050;-68
2023/04/06 11:59:45;;;;;;;21.23;14.90;;;;;;;;;;4922483;28;20043;-69
2023/04/06 12:02:11;;;;;;;22.73;14.55;;;;;;;;;;4923430;28;20038;-68
2023/04/06 12:04:36;;;;;;;22.23;14.00;;;;;;;;;;4935834;28;20114;-69
2023/04/06 12:07:02;;;;;;;19.58;14.20;;;;;;;;;;4920464;28;20040;-69
2023/04/06 12:09:27;;;;;;;16.67;12.82;;;;;;;;;;4920236;28;20031;-69
2023/04/06 12:11:53;;;;;;;19.90;14.07;;;;;;;;;;4912783;28;20046;-70
2023/04/06 12:14:18;;;;;;;17.17;13.10;;;;;;;;;;4916050;28;20039;-70
2023/04/06 12:16:48;;;;;;;17.13;12.75;;;;;;;;;;4929961;28;20074;-69
2023/04/06 12:19:16;;;;;;;23.63;13.32;;;;;;;;;;4922059;28;20111;-72
2023/04/06 12:21:42;;;;;;;20.38;14.48;;;;;;;;;;4918674;28;20043;-70
2023/04/06 12:24:08;;;;;;;17.92;14.05;;;;;;;;;;4917837;28;20101;-70
2023/04/06 12:26:33;;;;;;;18.20;14.13;;;;;;;;;;4921406;28;20097;-71
2023/04/06 12:29:06;;;;;;;15.85;13.13;;;;;;;;;;4916844;28;20085;-72
2023/04/06 12:31:31;;;;;;;16.45;13.60;;;;;;;;;;4932727;28;20456;-70
2023/04/06 12:33:56;;;;;;;17.95;14.02;;;;;;;;;;4918677;28;20054;-68
2023/04/06 12:36:25;;;;;;;20.55;14.27;;;;;;;;;;4919665;28;20078;-71
2023/04/06 12:38:51;;;;;;;20.58;15.57;;;;;;;;;;4920281;28;20031;-70
2023/04/06 12:41:16;;;;;;;19.35;15.10;;;;;;;;;;4922569;28;20059;-70
2023/04/06 12:43:42;;;;;;;21.63;16.42;;;;;;;;;;4915678;28;20050;-70
2023/04/06 12:46:07;;;;;;;20.30;15.57;;;;;;;;;;4917587;28;20035;-73
2023/04/06 12:48:33;;;;;;;22.50;16.40;;;;;;;;;;4911953;28;20350;-73
2023/04/06 12:51:02;;;;;;;22.00;16.08;;;;;;;;;;4921888;28;20118;-72
2023/04/06 12:53:27;;;;;;;22.15;16.23;;;;;;;;;;4916881;28;20508;-72
2023/04/06 12:55:53;;;;;;;24.88;17.65;;;;;;;;;;4924508;28;20038;-73
2023/04/06 12:58:19;;;;;;;27.38;17.30;;;;;;;;;;4917703;28;20053;-71
2023/04/06 13:00:44;;;;;;;21.50;16.38;;;;;;;;;;4917310;28;20305;-72
2023/04/06 13:03:09;;;;;;;20.55;15.65;;;;;;;;;;4916141;28;20320;-73
2023/04/06 13:05:34;;;;;;;24.77;16.80;;;;;;;;;;4916439;28;20039;-72
2023/04/06 13:08:00;;;;;;;26.80;18.15;;;;;;;;;;4918718;28;20039;-74
2023/04/06 13:10:26;;;;;;;24.33;17.17;;;;;;;;;;4916606;28;20043;-74
2023/04/06 13:12:51;;;;;;;25.83;17.77;;;;;;;;;;4917338;28;20039;-74
2023/04/06 13:15:17;;;;;;;25.98;17.92;;;;;;;;;;4945120;28;20043;-74
2023/04/06 13:17:42;;;;;;;23.23;17.55;;;;;;;;;;4916151;28;20457;-73
2023/04/06 13:20:08;;;;;;;21.33;15.77;;;;;;;;;;4921100;28;20031;-75
2023/04/06 13:22:33;;;;;;;25.48;15.93;;;;;;;;;;4916208;28;20489;-73
2023/04/06 13:24:58;;;;;;;22.88;16.83;;;;;;;;;;4915286;28;20031;-74
2023/04/06 13:27:23;;;;;;;20.77;14.98;;;;;;;;;;4918857;28;20762;-74
2023/04/06 13:29:49;;;;;;;20.48;15.27;;;;;;;;;;4915396;28;20111;-72
2023/04/06 13:32:17;;;;;;;20.77;14.75;;;;;;;;;;4915426;28;20042;-71
2023/04/06 13:34:44;;;;;;;21.98;14.80;;;;;;;;;;4914666;28;20039;-70
2023/04/06 13:37:13;;;;;;;24.30;15.05;;;;;;;;;;4916685;28;20498;-72
2023/04/06 13:39:38;;;;;;;21.17;15.18;;;;;;;;;;4928267;28;20042;-71
2023/04/06 13:42:03;;;;;;;22.02;15.13;;;;;;;;;;4913870;28;20032;-71
2023/04/06 13:44:31;;;;;;;21.70;16.08;;;;;;;;;;4915233;28;20046;-72
2023/04/06 13:46:56;;;;;;;22.30;15.88;;;;;;;;;;4916099;28;20039;-68
2023/04/06 13:49:21;;;;;;;22.58;15.07;;;;;;;;;;4914210;28;20038;-71
2023/04/06 13:51:51;;;;;;;23.08;15.90;;;;;;;;;;4916409;28;20391;-71
2023/04/06 13:54:16;;;;;;;21.08;15.18;;;;;;;;;;4917768;28;20040;-71
2023/04/06 13:56:42;;;;;;;22.25;16.55;;;;;;;;;;4915275;28;20058;-70
2023/04/06 13:59:07;;;;;;;21.98;15.23;;;;;;;;;;4915824;28;20043;-72
2023/04/06 14:01:32;;;;;;;31.10;19.67;;;;;;;;;;4915758;28;20047;-72
2023/04/06 14:04:02;;;;;;;22.60;16.70;;;;;;;;;;4913229;28;20090;-70
2023/04/06 14:06:27;;;;;;;29.85;18.35;;;;;;;;;;4916894;28;20049;-71
2023/04/06 14:08:52;;;;;;;23.58;17.55;;;;;;;;;;4914053;28;20058;-71
2023/04/06 14:11:18;;;;;;;24.88;17.70;;;;;;;;;;4913268;28;20031;-70